sensor_id;sensor_type;location;lat;lon;timestamp;pressure;altitude;pressure_sealevel;temperature;humidity
64253;BME280;50592;52.958;-7.470;2023-04-19T00:00:04;101630.91;;;7.25;100.00
64253;BME280;50592;52.958;-7.470;2023-04-19T00:02:32;101638.63;;;7.28;100.00
64253;BME280;50592;52.958;-7.470;2023-04-19T00:04:59;101642.88;;;7.30;100.00
64253;BME280;50592;52.958;-7.470;2023-04-19T00:07:25;101640.50;;;7.26;100.00
64253;BME280;50592;52.958;-7.470;2023-04-19T00:09:50;101640.97;;;7.18;100.00
64253;BME280;50592;52.958;-7.470;2023-04-19T00:12:16;101630.66;;;7.15;100.00
64253;BME280;50592;52.958;-7.470;2023-04-19T00:14:41;101633.38;;;7.13;100.00
64253;BME280;50592;52.958;-7.470;2023-04-19T00:17:07;101628.84;;;7.15;100.00
64253;BME280;50592;52.958;-7.470;2023-04-19T00:19:33;101635.81;;;7.16;100.00
64253;BME280;50592;52.958;-7.470;2023-04-19T00:21:58;101636.56;;;7.18;100.00
64253;BME280;50592;52.958;-7.470;2023-04-19T00:24:24;101643.03;;;7.13;100.00
64253;BME280;50592;52.958;-7.470;2023-04-19T00:26:50;101639.09;;;7.05;100.00
64253;BME280;50592;52.958;-7.470;2023-04-19T00:29:16;101632.41;;;7.00;100.00
64253;BME280;50592;52.958;-7.470;2023-04-19T00:31:41;101626.66;;;6.93;100.00
64253;BME280;50592;52.958;-7.470;2023-04-19T00:34:07;101616.31;;;6.90;100.00
64253;BME280;50592;52.958;-7.470;2023-04-19T00:36:32;101613.69;;;6.90;100.00
64253;BME280;50592;52.958;-7.470;2023-04-19T00:38:58;101616.13;;;6.93;100.00
64253;BME280;50592;52.958;-7.470;2023-04-19T00:41:24;101612.78;;;6.91;100.00
64253;BME280;50592;52.958;-7.470;2023-04-19T00:43:49;101614.81;;;6.86;100.00
64253;BME280;50592;52.958;-7.470;2023-04-19T00:46:15;101615.19;;;6.79;100.00
64253;BME280;50592;52.958;-7.470;2023-04-19T00:48:40;101614.50;;;6.76;100.00
64253;BME280;50592;52.958;-7.470;2023-04-19T00:51:06;101608.69;;;6.70;100.00
64253;BME280;50592;52.958;-7.470;2023-04-19T00:53:32;101610.75;;;6.65;100.00
64253;BME280;50592;52.958;-7.470;2023-04-19T00:55:58;101605.59;;;6.64;100.00
64253;BME280;50592;52.958;-7.470;2023-04-19T00:58:27;101614.47;;;6.61;100.00
64253;BME280;50592;52.958;-7.470;2023-04-19T01:00:54;101607.53;;;6.60;100.00
64253;BME280;50592;52.958;-7.470;2023-04-19T01:03:20;101615.41;;;6.60;100.00
64253;BME280;50592;52.958;-7.470;2023-04-19T01:05:46;101611.03;;;6.61;100.00
64253;BME280;50592;52.958;-7.470;2023-04-19T01:08:12;101611.09;;;6.59;100.00
64253;BME280;50592;52.958;-7.470;2023-04-19T01:10:38;101613.06;;;6.55;100.00
64253;BME280;50592;52.958;-7.470;2023-04-19T01:13:04;101608.75;;;6.54;100.00
64253;BME280;50592;52.958;-7.470;2023-04-19T01:15:29;101594.41;;;6.60;100.00
64253;BME280;50592;52.958;-7.470;2023-04-19T01:17:56;101593.38;;;6.63;100.00
64253;BME280;50592;52.958;-7.470;2023-04-19T01:20:22;101594.72;;;6.70;100.00
64253;BME280;50592;52.958;-7.470;2023-04-19T01:22:47;101592.72;;;6.74;100.00
64253;BME280;50592;52.958;-7.470;2023-04-19T01:25:13;101591.31;;;6.68;100.00
64253;BME280;50592;52.958;-7.470;2023-04-19T01:27:41;101594.03;;;6.66;100.00
64253;BME280;50592;52.958;-7.470;2023-04-19T01:30:07;101592.25;;;6.67;100.00
64253;BME280;50592;52.958;-7.470;2023-04-19T01:32:33;101581.34;;;6.58;100.00
64253;BME280;50592;52.958;-7.470;2023-04-19T01:34:58;101579.28;;;6.49;100.00
64253;BME280;50592;52.958;-7.470;2023-04-19T01:37:24;101588.59;;;6.39;100.00
64253;BME280;50592;52.958;-7.470;2023-04-19T01:39:49;101584.81;;;6.28;100.00
64253;BME280;50592;52.958;-7.470;2023-04-19T01:42:15;101582.38;;;6.25;100.00
64253;BME280;50592;52.958;-7.470;2023-04-19T01:44:41;101585.00;;;6.25;100.00
64253;BME280;50592;52.958;-7.470;2023-04-19T01:47:06;101571.69;;;6.28;100.00
64253;BME280;50592;52.958;-7.470;2023-04-19T01:49:32;101570.66;;;6.31;100.00
64253;BME280;50592;52.958;-7.470;2023-04-19T01:51:58;101577.81;;;6.29;100.00
64253;BME280;50592;52.958;-7.470;2023-04-19T01:54:25;101575.44;;;6.24;100.00
64253;BME280;50592;52.958;-7.470;2023-04-19T01:56:51;101567.25;;;6.14;100.00
64253;BME280;50592;52.958;-7.470;2023-04-19T01:59:18;101564.69;;;6.13;100.00
64253;BME280;50592;52.958;-7.470;2023-04-19T02:01:44;101570.78;;;6.13;100.00
64253;BME280;50592;52.958;-7.470;2023-04-19T02:04:09;101563.94;;;6.11;100.00
64253;BME280;50592;52.958;-7.470;2023-04-19T02:06:35;101560.84;;;6.02;100.00
64253;BME280;50592;52.958;-7.470;2023-04-19T02:09:03;101561.97;;;5.98;100.00
64253;BME280;50592;52.958;-7.470;2023-04-19T02:11:28;101564.50;;;6.00;100.00
64253;BME280;50592;52.958;-7.470;2023-04-19T02:13:54;101554.28;;;5.95;100.00
64253;BME280;50592;52.958;-7.470;2023-04-19T02:16:19;101552.81;;;5.89;100.00
64253;BME280;50592;52.958;-7.470;2023-04-19T02:18:45;101545.38;;;5.81;100.00
64253;BME280;50592;52.958;-7.470;2023-04-19T02:21:12;101557.06;;;5.76;100.00
64253;BME280;50592;52.958;-7.470;2023-04-19T02:23:39;101555.56;;;5.71;100.00
64253;BME280;50592;52.958;-7.470;2023-04-19T02:26:04;101559.78;;;5.74;100.00
64253;BME280;50592;52.958;-7.470;2023-04-19T02:28:30;101546.66;;;5.74;100.00
64253;BME280;50592;52.958;-7.470;2023-04-19T02:30:56;101547.69;;;5.71;100.00
64253;BME280;50592;52.958;-7.470;2023-04-19T02:33:22;101549.47;;;5.71;100.00
64253;BME280;50592;52.958;-7.470;2023-04-19T02:35:48;101551.31;;;5.69;100.00
64253;BME280;50592;52.958;-7.470;2023-04-19T02:38:14;101551.56;;;5.64;100.00
64253;BME280;50592;52.958;-7.470;2023-04-19T02:40:39;101551.81;;;5.59;100.00
64253;BME280;50592;52.958;-7.470;2023-04-19T02:43:05;101546.75;;;5.56;100.00
64253;BME280;50592;52.958;-7.470;2023-04-19T02:45:31;101548.44;;;5.57;100.00
64253;BME280;50592;52.958;-7.470;2023-04-19T02:47:56;101537.94;;;5.57;100.00
64253;BME280;50592;52.958;-7.470;2023-04-19T02:50:23;101535.31;;;5.57;100.00
64253;BME280;50592;52.958;-7.470;2023-04-19T02:52:49;101532.13;;;5.52;100.00
64253;BME280;50592;52.958;-7.470;2023-04-19T02:55:16;101539.91;;;5.54;100.00
64253;BME280;50592;52.958;-7.470;2023-04-19T02:57:43;101537.72;;;5.62;100.00
64253;BME280;50592;52.958;-7.470;2023-04-19T03:00:10;101529.69;;;5.65;100.00
64253;BME280;50592;52.958;-7.470;2023-04-19T03:02:37;101528.22;;;5.59;100.00
64253;BME280;50592;52.958;-7.470;2023-04-19T03:05:05;101540.66;;;5.56;100.00
64253;BME280;50592;52.958;-7.470;2023-04-19T03:07:31;101516.47;;;5.51;100.00
64253;BME280;50592;52.958;-7.470;2023-04-19T03:09:57;101513.75;;;5.36;100.00
64253;BME280;50592;52.958;-7.470;2023-04-19T03:12:24;101520.41;;;5.26;100.00
64253;BME280;50592;52.958;-7.470;2023-04-19T03:14:49;101525.75;;;5.24;100.00
64253;BME280;50592;52.958;-7.470;2023-04-19T03:17:15;101525.41;;;5.30;100.00
64253;BME280;50592;52.958;-7.470;2023-04-19T03:19:41;101507.66;;;5.36;100.00
64253;BME280;50592;52.958;-7.470;2023-04-19T03:22:07;101504.22;;;5.35;100.00
64253;BME280;50592;52.958;-7.470;2023-04-19T03:24:33;101519.25;;;5.31;100.00
64253;BME280;50592;52.958;-7.470;2023-04-19T03:27:10;101520.94;;;5.32;100.00
64253;BME280;50592;52.958;-7.470;2023-04-19T03:29:36;101518.84;;;5.39;100.00
64253;BME280;50592;52.958;-7.470;2023-04-19T03:32:05;101513.25;;;5.45;100.00
64253;BME280;50592;52.958;-7.470;2023-04-19T03:34:31;101521.81;;;5.49;100.00
64253;BME280;50592;52.958;-7.470;2023-04-19T03:36:58;101519.91;;;5.51;100.00
64253;BME280;50592;52.958;-7.470;2023-04-19T03:39:23;101527.72;;;5.53;100.00
64253;BME280;50592;52.958;-7.470;2023-04-19T03:41:54;101524.34;;;5.51;100.00
64253;BME280;50592;52.958;-7.470;2023-04-19T03:44:23;101513.00;;;5.50;100.00
64253;BME280;50592;52.958;-7.470;2023-04-19T03:46:49;101507.91;;;5.47;100.00
64253;BME280;50592;52.958;-7.470;2023-04-19T03:49:19;101516.88;;;5.27;100.00
64253;BME280;50592;52.958;-7.470;2023-04-19T03:51:50;101523.97;;;5.25;100.00
64253;BME280;50592;52.958;-7.470;2023-04-19T03:54:16;101519.50;;;5.27;100.00
64253;BME280;50592;52.958;-7.470;2023-04-19T03:56:41;101524.66;;;5.28;100.00
64253;BME280;50592;52.958;-7.470;2023-04-19T03:59:10;101533.34;;;5.29;100.00
64253;BME280;50592;52.958;-7.470;2023-04-19T04:01:38;101543.53;;;5.35;100.00
64253;BME280;50592;52.958;-7.470;2023-04-19T04:04:09;101536.09;;;5.43;100.00
64253;BME280;50592;52.958;-7.470;2023-04-19T04:06:36;101529.66;;;5.49;100.00
64253;BME280;50592;52.958;-7.470;2023-04-19T04:09:02;101533.19;;;5.48;100.00
64253;BME280;50592;52.958;-7.470;2023-04-19T04:11:29;101526.38;;;5.45;100.00
64253;BME280;50592;52.958;-7.470;2023-04-19T04:13:55;101519.59;;;5.41;100.00
64253;BME280;50592;52.958;-7.470;2023-04-19T04:16:26;101516.47;;;5.34;100.00
64253;BME280;50592;52.958;-7.470;2023-04-19T04:18:52;101523.13;;;5.24;100.00
64253;BME280;50592;52.958;-7.470;2023-04-19T04:21:19;101524.13;;;5.21;100.00
64253;BME280;50592;52.958;-7.470;2023-04-19T04:23:46;101516.44;;;5.18;100.00
64253;BME280;50592;52.958;-7.470;2023-04-19T04:26:19;101515.75;;;5.15;100.00
64253;BME280;50592;52.958;-7.470;2023-04-19T04:28:59;101522.09;;;5.11;100.00
64253;BME280;50592;52.958;-7.470;2023-04-19T04:31:26;101519.56;;;5.09;100.00
64253;BME280;50592;52.958;-7.470;2023-04-19T04:33:52;101525.81;;;5.06;100.00
64253;BME280;50592;52.958;-7.470;2023-04-19T04:36:20;101515.16;;;5.09;100.00
64253;BME280;50592;52.958;-7.470;2023-04-19T04:38:47;101520.25;;;5.13;100.00
64253;BME280;50592;52.958;-7.470;2023-04-19T04:41:13;101518.38;;;5.15;100.00
64253;BME280;50592;52.958;-7.470;2023-04-19T04:43:39;101517.28;;;5.19;100.00
64253;BME280;50592;52.958;-7.470;2023-04-19T04:46:04;101522.03;;;5.28;100.00
64253;BME280;50592;52.958;-7.470;2023-04-19T04:48:36;101515.69;;;5.32;100.00
64253;BME280;50592;52.958;-7.470;2023-04-19T04:51:03;101512.00;;;5.37;100.00
64253;BME280;50592;52.958;-7.470;2023-04-19T04:53:31;101512.22;;;5.32;100.00
64253;BME280;50592;52.958;-7.470;2023-04-19T04:55:57;101520.31;;;5.27;100.00
64253;BME280;50592;52.958;-7.470;2023-04-19T04:58:23;101520.75;;;5.19;100.00
64253;BME280;50592;52.958;-7.470;2023-04-19T05:01:02;101516.78;;;5.12;100.00
64253;BME280;50592;52.958;-7.470;2023-04-19T05:03:29;101513.38;;;5.10;100.00
64253;BME280;50592;52.958;-7.470;2023-04-19T05:05:57;101517.03;;;5.07;100.00
64253;BME280;50592;52.958;-7.470;2023-04-19T05:08:26;101522.94;;;5.11;100.00
64253;BME280;50592;52.958;-7.470;2023-04-19T05:10:56;101524.38;;;5.17;100.00
64253;BME280;50592;52.958;-7.470;2023-04-19T05:13:25;101529.22;;;5.25;100.00
64253;BME280;50592;52.958;-7.470;2023-04-19T05:15:50;101526.09;;;5.34;100.00
64253;BME280;50592;52.958;-7.470;2023-04-19T05:18:17;101528.56;;;5.37;100.00
64253;BME280;50592;52.958;-7.470;2023-04-19T05:20:43;101517.97;;;5.39;100.00
64253;BME280;50592;52.958;-7.470;2023-04-19T05:23:30;101526.00;;;5.36;100.00
64253;BME280;50592;52.958;-7.470;2023-04-19T05:25:56;101520.75;;;5.36;100.00
64253;BME280;50592;52.958;-7.470;2023-04-19T05:28:25;101525.31;;;5.32;100.00
64253;BME280;50592;52.958;-7.470;2023-04-19T05:31:03;101528.03;;;5.30;100.00
64253;BME280;50592;52.958;-7.470;2023-04-19T05:33:33;101521.88;;;5.31;100.00
64253;BME280;50592;52.958;-7.470;2023-04-19T05:35:59;101522.78;;;5.30;100.00
64253;BME280;50592;52.958;-7.470;2023-04-19T05:38:25;101524.81;;;5.25;100.00
64253;BME280;50592;52.958;-7.470;2023-04-19T05:40:54;101531.16;;;5.21;100.00
64253;BME280;50592;52.958;-7.470;2023-04-19T05:43:20;101527.88;;;5.17;100.00
64253;BME280;50592;52.958;-7.470;2023-04-19T05:45:46;101532.34;;;5.15;100.00
64253;BME280;50592;52.958;-7.470;2023-04-19T05:48:12;101531.56;;;5.13;100.00
64253;BME280;50592;52.958;-7.470;2023-04-19T05:51:16;101538.44;;;5.16;100.00
64253;BME280;50592;52.958;-7.470;2023-04-19T05:54:02;101528.13;;;5.13;100.00
64253;BME280;50592;52.958;-7.470;2023-04-19T05:56:28;101536.81;;;5.13;100.00
64253;BME280;50592;52.958;-7.470;2023-04-19T05:58:54;101536.56;;;5.18;100.00
64253;BME280;50592;52.958;-7.470;2023-04-19T06:01:24;101536.38;;;5.21;100.00
64253;BME280;50592;52.958;-7.470;2023-04-19T06:03:50;101535.31;;;5.25;100.00
64253;BME280;50592;52.958;-7.470;2023-04-19T06:06:18;101533.53;;;5.26;100.00
64253;BME280;50592;52.958;-7.470;2023-04-19T06:08:43;101531.59;;;5.29;100.00
64253;BME280;50592;52.958;-7.470;2023-04-19T06:11:09;101533.88;;;5.36;100.00
64253;BME280;50592;52.958;-7.470;2023-04-19T06:13:35;101534.06;;;5.49;100.00
64253;BME280;50592;52.958;-7.470;2023-04-19T06:16:01;101529.16;;;5.58;100.00
64253;BME280;50592;52.958;-7.470;2023-04-19T06:18:27;101529.16;;;5.75;100.00
64253;BME280;50592;52.958;-7.470;2023-04-19T06:20:52;101529.38;;;5.86;100.00
64253;BME280;50592;52.958;-7.470;2023-04-19T06:23:18;101531.69;;;5.92;100.00
64253;BME280;50592;52.958;-7.470;2023-04-19T06:25:44;101537.31;;;6.01;100.00
64253;BME280;50592;52.958;-7.470;2023-04-19T06:28:09;101532.06;;;6.17;100.00
64253;BME280;50592;52.958;-7.470;2023-04-19T06:30:35;101535.59;;;6.32;100.00
64253;BME280;50592;52.958;-7.470;2023-04-19T06:33:01;101537.16;;;6.51;100.00
64253;BME280;50592;52.958;-7.470;2023-04-19T06:35:27;101535.38;;;6.66;100.00
64253;BME280;50592;52.958;-7.470;2023-04-19T06:37:52;101539.06;;;6.78;100.00
64253;BME280;50592;52.958;-7.470;2023-04-19T06:40:18;101525.94;;;6.78;100.00
64253;BME280;50592;52.958;-7.470;2023-04-19T06:42:43;101528.84;;;6.73;100.00
64253;BME280;50592;52.958;-7.470;2023-04-19T06:45:10;101531.16;;;6.63;100.00
64253;BME280;50592;52.958;-7.470;2023-04-19T06:47:36;101532.75;;;6.51;100.00
64253;BME280;50592;52.958;-7.470;2023-04-19T06:50:01;101530.78;;;6.55;100.00
64253;BME280;50592;52.958;-7.470;2023-04-19T06:52:27;101525.44;;;6.56;100.00
64253;BME280;50592;52.958;-7.470;2023-04-19T06:54:53;101527.69;;;6.63;100.00
64253;BME280;50592;52.958;-7.470;2023-04-19T06:57:18;101526.09;;;6.60;100.00
64253;BME280;50592;52.958;-7.470;2023-04-19T06:59:44;101525.72;;;6.66;100.00
64253;BME280;50592;52.958;-7.470;2023-04-19T07:02:10;101528.06;;;6.71;100.00
64253;BME280;50592;52.958;-7.470;2023-04-19T07:04:36;101525.75;;;6.81;100.00
64253;BME280;50592;52.958;-7.470;2023-04-19T07:07:02;101524.53;;;7.01;100.00
64253;BME280;50592;52.958;-7.470;2023-04-19T07:09:27;101520.94;;;7.31;100.00
64253;BME280;50592;52.958;-7.470;2023-04-19T07:11:53;101520.59;;;7.65;100.00
64253;BME280;50592;52.958;-7.470;2023-04-19T07:14:19;101519.09;;;7.89;100.00
64253;BME280;50592;52.958;-7.470;2023-04-19T07:16:45;101525.16;;;8.04;100.00
64253;BME280;50592;52.958;-7.470;2023-04-19T07:19:10;101524.50;;;8.00;100.00
64253;BME280;50592;52.958;-7.470;2023-04-19T07:21:36;101528.41;;;7.94;100.00
64253;BME280;50592;52.958;-7.470;2023-04-19T07:24:03;101515.91;;;7.84;100.00
64253;BME280;50592;52.958;-7.470;2023-04-19T07:26:30;101520.19;;;7.72;100.00
64253;BME280;50592;52.958;-7.470;2023-04-19T07:28:56;101522.63;;;7.75;100.00
64253;BME280;50592;52.958;-7.470;2023-04-19T07:31:22;101515.50;;;7.77;100.00
64253;BME280;50592;52.958;-7.470;2023-04-19T07:33:49;101513.16;;;7.72;100.00
64253;BME280;50592;52.958;-7.470;2023-04-19T07:36:14;101512.78;;;7.64;100.00
64253;BME280;50592;52.958;-7.470;2023-04-19T07:38:40;101516.91;;;7.68;100.00
64253;BME280;50592;52.958;-7.470;2023-04-19T07:41:06;101513.66;;;7.64;100.00
64253;BME280;50592;52.958;-7.470;2023-04-19T07:43:31;101515.44;;;7.64;100.00
64253;BME280;50592;52.958;-7.470;2023-04-19T07:45:57;101518.72;;;7.67;100.00
64253;BME280;50592;52.958;-7.470;2023-04-19T07:48:23;101519.00;;;7.63;100.00
64253;BME280;50592;52.958;-7.470;2023-04-19T07:50:48;101520.78;;;7.62;100.00
64253;BME280;50592;52.958;-7.470;2023-04-19T07:53:14;101516.56;;;7.60;100.00
64253;BME280;50592;52.958;-7.470;2023-04-19T07:55:40;101517.59;;;7.57;100.00
64253;BME280;50592;52.958;-7.470;2023-04-19T07:58:06;101518.75;;;7.53;100.00
64253;BME280;50592;52.958;-7.470;2023-04-19T08:00:32;101523.97;;;7.67;100.00
64253;BME280;50592;52.958;-7.470;2023-04-19T08:03:01;101518.94;;;7.77;100.00
64253;BME280;50592;52.958;-7.470;2023-04-19T08:05:26;101524.66;;;7.84;100.00
64253;BME280;50592;52.958;-7.470;2023-04-19T08:07:52;101519.84;;;7.91;100.00
64253;BME280;50592;52.958;-7.470;2023-04-19T08:10:18;101516.16;;;7.93;100.00
64253;BME280;50592;52.958;-7.470;2023-04-19T08:12:44;101515.84;;;7.98;100.00
64253;BME280;50592;52.958;-7.470;2023-04-19T08:15:10;101516.88;;;7.82;100.00
64253;BME280;50592;52.958;-7.470;2023-04-19T08:17:36;101516.81;;;7.97;100.00
64253;BME280;50592;52.958;-7.470;2023-04-19T08:20:01;101514.31;;;8.09;100.00
64253;BME280;50592;52.958;-7.470;2023-04-19T08:22:28;101502.63;;;8.13;100.00
64253;BME280;50592;52.958;-7.470;2023-04-19T08:24:53;101513.59;;;8.19;100.00
64253;BME280;50592;52.958;-7.470;2023-04-19T08:27:20;101511.91;;;8.05;100.00
64253;BME280;50592;52.958;-7.470;2023-04-19T08:29:45;101515.16;;;8.09;100.00
64253;BME280;50592;52.958;-7.470;2023-04-19T08:32:11;101513.06;;;8.14;100.00
64253;BME280;50592;52.958;-7.470;2023-04-19T08:34:38;101511.41;;;8.26;100.00
64253;BME280;50592;52.958;-7.470;2023-04-19T08:37:04;101519.94;;;8.30;100.00
64253;BME280;50592;52.958;-7.470;2023-04-19T08:39:31;101512.47;;;8.37;100.00
64253;BME280;50592;52.958;-7.470;2023-04-19T08:42:00;101509.66;;;8.53;100.00
64253;BME280;50592;52.958;-7.470;2023-04-19T08:44:27;101518.53;;;8.65;100.00
64253;BME280;50592;52.958;-7.470;2023-04-19T08:46:55;101511.03;;;8.59;100.00
64253;BME280;50592;52.958;-7.470;2023-04-19T08:49:21;101507.66;;;8.69;100.00
64253;BME280;50592;52.958;-7.470;2023-04-19T08:51:47;101513.03;;;8.81;100.00
64253;BME280;50592;52.958;-7.470;2023-04-19T08:54:14;101511.59;;;8.77;100.00
64253;BME280;50592;52.958;-7.470;2023-04-19T08:56:40;101507.38;;;8.74;100.00
64253;BME280;50592;52.958;-7.470;2023-04-19T08:59:05;101495.22;;;8.85;100.00
64253;BME280;50592;52.958;-7.470;2023-04-19T09:01:31;101497.75;;;8.86;100.00
64253;BME280;50592;52.958;-7.470;2023-04-19T09:03:57;101501.47;;;8.84;100.00
64253;BME280;50592;52.958;-7.470;2023-04-19T09:06:24;101504.00;;;8.85;100.00
64253;BME280;50592;52.958;-7.470;2023-04-19T09:08:51;101513.16;;;8.66;100.00
64253;BME280;50592;52.958;-7.470;2023-04-19T09:11:33;101504.41;;;8.66;100.00
64253;BME280;50592;52.958;-7.470;2023-04-19T09:14:10;101505.56;;;8.62;100.00
64253;BME280;50592;52.958;-7.470;2023-04-19T09:16:36;101508.09;;;8.63;100.00
64253;BME280;50592;52.958;-7.470;2023-04-19T09:19:02;101506.94;;;8.67;100.00
64253;BME280;50592;52.958;-7.470;2023-04-19T09:21:28;101511.91;;;8.72;100.00
64253;BME280;50592;52.958;-7.470;2023-04-19T09:23:54;101513.25;;;8.78;100.00
64253;BME280;50592;52.958;-7.470;2023-04-19T09:26:20;101513.03;;;8.81;100.00
64253;BME280;50592;52.958;-7.470;2023-04-19T09:28:56;101508.09;;;8.76;100.00
64253;BME280;50592;52.958;-7.470;2023-04-19T09:31:22;101508.31;;;8.73;100.00
64253;BME280;50592;52.958;-7.470;2023-04-19T09:33:49;101512.50;;;8.89;100.00
64253;BME280;50592;52.958;-7.470;2023-04-19T09:36:25;101518.09;;;8.97;100.00
64253;BME280;50592;52.958;-7.470;2023-04-19T09:38:51;101514.53;;;8.85;100.00
64253;BME280;50592;52.958;-7.470;2023-04-19T09:41:17;101518.94;;;8.98;100.00
64253;BME280;50592;52.958;-7.470;2023-04-19T09:43:43;101511.78;;;9.00;100.00
64253;BME280;50592;52.958;-7.470;2023-04-19T09:46:15;101506.03;;;9.19;100.00
64253;BME280;50592;52.958;-7.470;2023-04-19T09:48:54;101504.66;;;9.26;100.00
64253;BME280;50592;52.958;-7.470;2023-04-19T09:51:20;101509.28;;;9.36;100.00
64253;BME280;50592;52.958;-7.470;2023-04-19T09:53:45;101506.19;;;9.42;100.00
64253;BME280;50592;52.958;-7.470;2023-04-19T09:56:12;101499.03;;;9.44;100.00
64253;BME280;50592;52.958;-7.470;2023-04-19T09:58:38;101502.16;;;9.49;100.00
64253;BME280;50592;52.958;-7.470;2023-04-19T10:01:04;101493.47;;;9.60;100.00
64253;BME280;50592;52.958;-7.470;2023-04-19T10:03:30;101489.97;;;9.60;100.00
64253;BME280;50592;52.958;-7.470;2023-04-19T10:05:56;101498.31;;;9.66;100.00
64253;BME280;50592;52.958;-7.470;2023-04-19T10:08:22;101506.59;;;9.49;100.00
64253;BME280;50592;52.958;-7.470;2023-04-19T10:10:48;101504.44;;;9.29;100.00
64253;BME280;50592;52.958;-7.470;2023-04-19T10:13:19;101495.47;;;9.19;100.00
64253;BME280;50592;52.958;-7.470;2023-04-19T10:15:47;101501.13;;;9.39;100.00
64253;BME280;50592;52.958;-7.470;2023-04-19T10:18:13;101487.72;;;9.42;100.00
64253;BME280;50592;52.958;-7.470;2023-04-19T10:23:08;101493.78;;;9.31;100.00
64253;BME280;50592;52.958;-7.470;2023-04-19T10:25:35;101488.47;;;9.44;100.00
64253;BME280;50592;52.958;-7.470;2023-04-19T10:28:01;101489.28;;;9.45;100.00
64253;BME280;50592;52.958;-7.470;2023-04-19T10:30:27;101491.38;;;9.52;100.00
64253;BME280;50592;52.958;-7.470;2023-04-19T10:32:57;101481.84;;;9.63;100.00
64253;BME280;50592;52.958;-7.470;2023-04-19T10:35:33;101483.47;;;9.77;100.00
64253;BME280;50592;52.958;-7.470;2023-04-19T10:38:12;101478.69;;;9.82;100.00
64253;BME280;50592;52.958;-7.470;2023-04-19T10:43:15;101477.59;;;9.85;100.00
64253;BME280;50592;52.958;-7.470;2023-04-19T10:45:44;101472.75;;;10.03;100.00
64253;BME280;50592;52.958;-7.470;2023-04-19T10:50:58;101461.59;;;9.99;100.00
64253;BME280;50592;52.958;-7.470;2023-04-19T10:56:08;101469.66;;;10.09;100.00
64253;BME280;50592;52.958;-7.470;2023-04-19T11:04:08;101465.13;;;10.23;100.00
64253;BME280;50592;52.958;-7.470;2023-04-19T11:06:34;101463.22;;;10.25;100.00
64253;BME280;50592;52.958;-7.470;2023-04-19T11:09:00;101457.53;;;10.18;100.00
64253;BME280;50592;52.958;-7.470;2023-04-19T11:11:30;101456.47;;;10.32;100.00
64253;BME280;50592;52.958;-7.470;2023-04-19T11:13:57;101453.59;;;10.35;100.00
64253;BME280;50592;52.958;-7.470;2023-04-19T11:16:26;101456.13;;;10.37;100.00
64253;BME280;50592;52.958;-7.470;2023-04-19T11:18:52;101448.00;;;10.51;100.00
64253;BME280;50592;52.958;-7.470;2023-04-19T11:21:19;101456.38;;;10.45;100.00
64253;BME280;50592;52.958;-7.470;2023-04-19T11:23:44;101444.41;;;10.64;100.00
64253;BME280;50592;52.958;-7.470;2023-04-19T11:26:12;101445.84;;;10.57;100.00
64253;BME280;50592;52.958;-7.470;2023-04-19T11:28:38;101444.06;;;10.69;100.00
64253;BME280;50592;52.958;-7.470;2023-04-19T11:31:04;101443.59;;;10.63;100.00
64253;BME280;50592;52.958;-7.470;2023-04-19T11:33:33;101450.91;;;10.60;100.00
64253;BME280;50592;52.958;-7.470;2023-04-19T11:35:59;101445.75;;;10.81;100.00
64253;BME280;50592;52.958;-7.470;2023-04-19T11:38:28;101437.69;;;10.83;100.00
64253;BME280;50592;52.958;-7.470;2023-04-19T11:40:57;101444.28;;;11.00;100.00
64253;BME280;50592;52.958;-7.470;2023-04-19T11:43:23;101439.13;;;10.98;100.00
64253;BME280;50592;52.958;-7.470;2023-04-19T11:45:48;101429.97;;;11.02;100.00
64253;BME280;50592;52.958;-7.470;2023-04-19T11:48:14;101433.94;;;11.08;100.00
64253;BME280;50592;52.958;-7.470;2023-04-19T11:50:41;101434.25;;;11.15;100.00
64253;BME280;50592;52.958;-7.470;2023-04-19T11:53:20;101434.13;;;11.16;100.00
64253;BME280;50592;52.958;-7.470;2023-04-19T11:55:47;101423.53;;;11.28;100.00
64253;BME280;50592;52.958;-7.470;2023-04-19T11:58:28;101426.91;;;11.30;100.00
64253;BME280;50592;52.958;-7.470;2023-04-19T12:03:29;101426.75;;;11.43;100.00
64253;BME280;50592;52.958;-7.470;2023-04-19T12:05:55;101436.06;;;11.59;100.00
64253;BME280;50592;52.958;-7.470;2023-04-19T12:08:37;101437.91;;;11.47;100.00
64253;BME280;50592;52.958;-7.470;2023-04-19T12:11:04;101432.94;;;11.53;100.00
64253;BME280;50592;52.958;-7.470;2023-04-19T12:13:30;101419.72;;;11.53;100.00
64253;BME280;50592;52.958;-7.470;2023-04-19T12:15:56;101418.25;;;11.61;100.00
64253;BME280;50592;52.958;-7.470;2023-04-19T12:18:22;101417.50;;;11.70;100.00
64253;BME280;50592;52.958;-7.470;2023-04-19T12:20:50;101420.13;;;11.70;100.00
64253;BME280;50592;52.958;-7.470;2023-04-19T12:23:17;101400.66;;;11.60;100.00
64253;BME280;50592;52.958;-7.470;2023-04-19T12:25:43;101405.91;;;11.71;100.00
64253;BME280;50592;52.958;-7.470;2023-04-19T12:28:10;101409.16;;;11.75;100.00
64253;BME280;50592;52.958;-7.470;2023-04-19T12:30:36;101403.97;;;11.95;100.00
64253;BME280;50592;52.958;-7.470;2023-04-19T12:33:02;101408.88;;;11.99;100.00
64253;BME280;50592;52.958;-7.470;2023-04-19T12:35:28;101407.28;;;11.87;100.00
64253;BME280;50592;52.958;-7.470;2023-04-19T12:37:55;101396.28;;;11.91;100.00
64253;BME280;50592;52.958;-7.470;2023-04-19T12:40:21;101401.41;;;11.83;100.00
64253;BME280;50592;52.958;-7.470;2023-04-19T12:42:47;101400.44;;;11.84;100.00
64253;BME280;50592;52.958;-7.470;2023-04-19T12:45:12;101404.50;;;11.67;100.00
64253;BME280;50592;52.958;-7.470;2023-04-19T12:47:38;101403.97;;;11.52;100.00
64253;BME280;50592;52.958;-7.470;2023-04-19T12:50:04;101398.81;;;11.72;100.00
64253;BME280;50592;52.958;-7.470;2023-04-19T12:52:30;101399.66;;;11.72;100.00
64253;BME280;50592;52.958;-7.470;2023-04-19T12:54:56;101396.88;;;11.74;100.00